La Suprema — IBIL — position and weather

sailwx.info

Track history (hours):
 
Tides and Currents Weather Stations Pressure Air Temp Water Temp Dewpoint Dewpoint Depression Visibility Wind Speed Wind Dir Waves Ship Positions

La Suprema

Last reported at 2016-Jul-25 21:27 UTC. Time now 2016-Jul-26 08:21 UTC.
Position N 38°37' E 013°04'.

Length 211 m; draft 7.5 m.

Type: Passenger vessel. MMSI: 247083700.

Date/timePositionNaut miles runAvg speedWind from/ knotsBaromVisibWave heightAir tempDewpointWater temp
2016-Jul-25 21:27N 38°37' E 013°04'2123.9
2016-Jul-25 20:34N 38°20' E 013°19'1212.1
2016-Jul-25 19:33N 38°08' E 013°22'0 0.0
2016-Jul-25 18:33N 38°08' E 013°22'0 0.0
2016-Jul-25 17:33N 38°08' E 013°22'0 0.0
2016-Jul-25 16:33N 38°08' E 013°22'0 0.0
2016-Jul-25 15:33N 38°08' E 013°22'1 0.9
2016-Jul-25 14:33N 38°07' E 013°23'1918.5
2016-Jul-25 13:33N 38°25' E 013°15'30222.4
2016-Jul-25 00:03N 42°43' E 009°48'1222.3
2016-Jul-24 23:32N 42°54' E 009°42'2222.2
2016-Jul-24 22:33N 43°14' E 009°31'2121.8
2016-Jul-24 21:34N 43°34' E 009°21'2222.2
2016-Jul-24 20:34N 43°55' E 009°11'2222.4
2016-Jul-24 19:33N 44°16' E 008°60'9 7.8
2016-Jul-24 18:25N 44°25' E 008°55'0 0.0
2016-Jul-24 17:31N 44°25' E 008°55'0 0.0
2016-Jul-24 16:30N 44°25' E 008°55'0 0.0
2016-Jul-24 15:33N 44°25' E 008°55'0 0.0
2016-Jul-24 14:33N 44°25' E 008°55'1212.5
2016-Jul-24 13:34N 44°13' E 009°02'2323.4
2016-Jul-24 12:34N 43°51' E 009°14'2423.5
2016-Jul-24 11:34N 43°29' E 009°25'2423.4
2016-Jul-24 10:33N 43°07' E 009°36'23322.5
2016-Jul-24 00:13N 39°45' E 012°09'4222.4
2016-Jul-23 22:20N 39°09' E 012°39'1822.8
2016-Jul-23 21:33N 38°54' E 012°51'2323.3
2016-Jul-23 20:34N 38°34' E 013°07'2323.1
2016-Jul-23 19:34N 38°15' E 013°22'7 6.9
2016-Jul-23 18:33N 38°08' E 013°22'0 0.0
2016-Jul-23 17:33N 38°08' E 013°22'0 0.0
2016-Jul-23 16:32N 38°08' E 013°22'0 0.0
2016-Jul-23 15:32N 38°08' E 013°22'0 0.0
2016-Jul-23 14:33N 38°08' E 013°22'1313.1
2016-Jul-23 13:33N 38°21' E 013°18'2424.2
2016-Jul-23 12:34N 38°41' E 013°01'2424.2
2016-Jul-23 11:34N 39°01' E 012°45'2524.6
2016-Jul-23 10:33N 39°22' E 012°28'2424.4
2016-Jul-23 09:34N 39°43' E 012°11'7324.4
2016-Jul-23 06:33N 40°45' E 011°20'4823.8
2016-Jul-23 04:34N 41°25' E 010°46'2423.8
2016-Jul-23 03:33N 41°45' E 010°29'5023.9
2016-Jul-23 01:28N 42°28' E 009°53'2123.8
2016-Jul-23 00:33N 42°48' E 009°44'2423.7
2016-Jul-22 23:34N 43°10' E 009°33'2323.0
2016-Jul-22 22:34N 43°32' E 009°22'2423.7
2016-Jul-22 21:34N 43°54' E 009°11'2424.3
2016-Jul-22 20:34N 44°17' E 008°60'8 8.3
2016-Jul-22 19:33N 44°25' E 008°55'0 0.0
2016-Jul-22 18:30N 44°25' E 008°55'0 0.0
2016-Jul-22 17:32N 44°25' E 008°55'0 0.0
2016-Jul-22 16:32N 44°25' E 008°55'0 0.0
2016-Jul-22 15:31N 44°25' E 008°55'0 0.0
2016-Jul-22 14:31N 44°25' E 008°55'5 4.9
2016-Jul-22 13:34N 44°21' E 008°59'2322.7
2016-Jul-22 12:33N 43°59' E 009°09'2423.5
2016-Jul-22 11:34N 43°37' E 009°20'2423.8
2016-Jul-22 10:33N 43°15' E 009°32'2323.2
2016-Jul-22 09:33N 42°53' E 009°43'2323.1
2016-Jul-22 08:33N 42°31' E 009°53'3022.7
2016-Jul-22 07:13N 42°04' E 010°13'6423.9
2016-Jul-22 04:32N 41°10' E 010°59'10124.7
2016-Jul-22 00:26N 39°45' E 012°09'3124.5
2016-Jul-21 23:11N 39°19' E 012°30'1524.4
2016-Jul-21 22:33N 39°06' E 012°41'2424.5
2016-Jul-21 21:34N 38°45' E 012°58'2524.7
2016-Jul-21 20:34N 38°25' E 013°15'1817.7
2016-Jul-21 19:34N 38°08' E 013°22'0 0.2
2016-Jul-21 18:31N 38°08' E 013°22'0 0.0
2016-Jul-21 17:33N 38°08' E 013°22'0 0.0
2016-Jul-21 16:33N 38°08' E 013°22'0 0.0
2016-Jul-21 15:33N 38°08' E 013°22'0 0.2
2016-Jul-21 14:34N 38°08' E 013°22'1515.5
2016-Jul-21 13:34N 38°23' E 013°17'2423.7
2016-Jul-21 12:34N 38°43' E 012°60'2423.9
2016-Jul-21 11:33N 39°03' E 012°44'10623.8
2016-Jul-21 07:06N 40°33' E 011°29'15022.4
2016-Jul-21 00:23N 42°42' E 009°47'1922.2
2016-Jul-20 23:33N 42°59' E 009°38'2222.0
2016-Jul-20 22:33N 43°20' E 009°29'2221.9
2016-Jul-20 21:33N 43°40' E 009°18'2222.5
2016-Jul-20 20:33N 44°01' E 009°07'2222.5
2016-Jul-20 19:33N 44°23' E 008°57'2 2.1
2016-Jul-20 18:29N 44°25' E 008°55'0 0.0
2016-Jul-20 17:32N 44°25' E 008°55'0 0.0
2016-Jul-20 16:31N 44°25' E 008°55'0 0.0
2016-Jul-20 15:31N 44°25' E 008°55'0 0.0
2016-Jul-20 14:30N 44°25' E 008°55'7 7.3
2016-Jul-20 13:33N 44°19' E 008°60'2322.9
2016-Jul-20 12:34N 43°57' E 009°11'2323.1
2016-Jul-20 11:33N 43°35' E 009°22'2323.0
2016-Jul-20 10:33N 43°14' E 009°34'2322.4
2016-Jul-20 09:33N 42°52' E 009°44'25923.5
2016-Jul-19 22:32N 39°10' E 012°38'2924.5
2016-Jul-19 21:22N 38°45' E 012°58'2024.9
2016-Jul-19 20:34N 38°29' E 013°12'2323.0
2016-Jul-19 19:34N 38°08' E 013°24'2 1.8
2016-Jul-19 18:32N 38°08' E 013°22'0 0.0
2016-Jul-19 17:31N 38°08' E 013°22'0 0.0
2016-Jul-19 16:31N 38°08' E 013°22'0 0.0
2016-Jul-19 15:33N 38°08' E 013°22'0 0.0
2016-Jul-19 14:33N 38°08' E 013°22'1211.6
2016-Jul-19 13:34N 38°19' E 013°19'3223.1
2016-Jul-19 12:10N 38°46' E 012°57'1423.3
2016-Jul-19 11:32N 38°58' E 012°47'5623.4
2016-Jul-19 09:09N 39°46' E 012°09'2223.3
2016-Jul-19 08:14N 40°04' E 011°53'10722.9
2016-Jul-19 03:33N 41°34' E 010°38'6922.6
2016-Jul-19 00:30N 42°34' E 009°51'2223.2
2016-Jul-18 23:33N 42°55' E 009°42'2222.5
2016-Jul-18 22:33N 43°16' E 009°32'2322.6
2016-Jul-18 21:34N 43°37' E 009°20'2322.9
2016-Jul-18 20:33N 43°58' E 009°09'2322.9
2016-Jul-18 19:34N 44°20' E 008°58'5 5.0
2016-Jul-18 18:32N 44°25' E 008°55'0 0.0
2016-Jul-18 17:28N 44°25' E 008°55'0 0.0
2016-Jul-18 16:31N 44°25' E 008°55'0 0.0
2016-Jul-18 15:30N 44°25' E 008°55'0 0.0
2016-Jul-18 14:33N 44°25' E 008°55'7 7.5
2016-Jul-18 13:34N 44°18' E 009°00'2323.3
2016-Jul-18 12:34N 43°56' E 009°11'2323.5
2016-Jul-18 11:34N 43°34' E 009°23'2423.7
2016-Jul-18 10:33N 43°12' E 009°34'2323.3
2016-Jul-18 09:33N 42°50' E 009°44'7922.8
2016-Jul-18 06:07N 41°40' E 010°33'21922.9
2016-Jul-17 20:32N 38°35' E 013°06'2323.2
2016-Jul-17 19:34N 38°16' E 013°22'8 7.6
2016-Jul-17 18:31N 38°08' E 013°22'0 0.0
2016-Jul-17 17:33N 38°08' E 013°22'0 0.0
2016-Jul-17 16:33N 38°08' E 013°22'0 0.0
2016-Jul-17 15:32N 38°08' E 013°22'2 1.8
2016-Jul-17 14:33N 38°09' E 013°24'1716.9
2016-Jul-17 13:33N 38°24' E 013°15'22922.8
2016-Jul-17 03:31N 41°38' E 010°35'6822.9
2016-Jul-17 00:33N 42°37' E 009°50'2322.9
2016-Jul-16 23:33N 42°58' E 009°40'2222.3
2016-Jul-16 22:33N 43°19' E 009°29'2322.6
2016-Jul-16 21:33N 43°40' E 009°18'2322.6
2016-Jul-16 20:33N 44°01' E 009°07'2322.6
2016-Jul-16 19:34N 44°23' E 008°57'2 2.1
2016-Jul-16 18:31N 44°25' E 008°55'0 0.0
2016-Jul-16 17:31N 44°25' E 008°55'0 0.0
2016-Jul-16 16:33N 44°25' E 008°55'0 0.0
2016-Jul-16 15:33N 44°25' E 008°55'0 0.4
2016-Jul-16 14:33N 44°24' E 008°55'1818.2
2016-Jul-16 13:34N 44°08' E 009°06'2424.3
2016-Jul-16 12:34N 43°45' E 009°19'2424.2
2016-Jul-16 11:33N 43°22' E 009°30'  
Track history (hours):
 
Tides and Currents Weather Stations Pressure Air Temp Water Temp Dewpoint Dewpoint Depression Visibility Wind Speed Wind Dir Waves Ship Positions

La Suprema

Last reported at 2016-Jul-25 21:27 UTC. Time now 2016-Jul-26 08:21 UTC.
Position N 38°37' E 013°04'.

Length 211 m; draft 7.5 m.

Type: Passenger vessel. MMSI: 247083700.

Date/timePositionNaut miles runAvg speedWind from/ knotsBaromVisibWave heightAir tempDewpointWater temp
2016-Jul-25 21:27N 38°37' E 013°04'2123.9
2016-Jul-25 20:34N 38°20' E 013°19'1212.1
2016-Jul-25 19:33N 38°08' E 013°22'0 0.0
2016-Jul-25 18:33N 38°08' E 013°22'0 0.0
2016-Jul-25 17:33N 38°08' E 013°22'0 0.0
2016-Jul-25 16:33N 38°08' E 013°22'0 0.0
2016-Jul-25 15:33N 38°08' E 013°22'1 0.9
2016-Jul-25 14:33N 38°07' E 013°23'1918.5
2016-Jul-25 13:33N 38°25' E 013°15'30222.4
2016-Jul-25 00:03N 42°43' E 009°48'1222.3
2016-Jul-24 23:32N 42°54' E 009°42'2222.2
2016-Jul-24 22:33N 43°14' E 009°31'2121.8
2016-Jul-24 21:34N 43°34' E 009°21'2222.2
2016-Jul-24 20:34N 43°55' E 009°11'2222.4
2016-Jul-24 19:33N 44°16' E 008°60'9 7.8
2016-Jul-24 18:25N 44°25' E 008°55'0 0.0
2016-Jul-24 17:31N 44°25' E 008°55'0 0.0
2016-Jul-24 16:30N 44°25' E 008°55'0 0.0
2016-Jul-24 15:33N 44°25' E 008°55'0 0.0
2016-Jul-24 14:33N 44°25' E 008°55'1212.5
2016-Jul-24 13:34N 44°13' E 009°02'2323.4
2016-Jul-24 12:34N 43°51' E 009°14'2423.5
2016-Jul-24 11:34N 43°29' E 009°25'2423.4
2016-Jul-24 10:33N 43°07' E 009°36'23322.5
2016-Jul-24 00:13N 39°45' E 012°09'4222.4
2016-Jul-23 22:20N 39°09' E 012°39'1822.8
2016-Jul-23 21:33N 38°54' E 012°51'2323.3
2016-Jul-23 20:34N 38°34' E 013°07'2323.1
2016-Jul-23 19:34N 38°15' E 013°22'7 6.9
2016-Jul-23 18:33N 38°08' E 013°22'0 0.0
2016-Jul-23 17:33N 38°08' E 013°22'0 0.0
2016-Jul-23 16:32N 38°08' E 013°22'0 0.0
2016-Jul-23 15:32N 38°08' E 013°22'0 0.0
2016-Jul-23 14:33N 38°08' E 013°22'1313.1
2016-Jul-23 13:33N 38°21' E 013°18'2424.2
2016-Jul-23 12:34N 38°41' E 013°01'2424.2
2016-Jul-23 11:34N 39°01' E 012°45'2524.6
2016-Jul-23 10:33N 39°22' E 012°28'2424.4
2016-Jul-23 09:34N 39°43' E 012°11'7324.4
2016-Jul-23 06:33N 40°45' E 011°20'4823.8
2016-Jul-23 04:34N 41°25' E 010°46'2423.8
2016-Jul-23 03:33N 41°45' E 010°29'5023.9
2016-Jul-23 01:28N 42°28' E 009°53'2123.8
2016-Jul-23 00:33N 42°48' E 009°44'2423.7
2016-Jul-22 23:34N 43°10' E 009°33'2323.0
2016-Jul-22 22:34N 43°32' E 009°22'2423.7
2016-Jul-22 21:34N 43°54' E 009°11'2424.3
2016-Jul-22 20:34N 44°17' E 008°60'8 8.3
2016-Jul-22 19:33N 44°25' E 008°55'0 0.0
2016-Jul-22 18:30N 44°25' E 008°55'0 0.0
2016-Jul-22 17:32N 44°25' E 008°55'0 0.0
2016-Jul-22 16:32N 44°25' E 008°55'0 0.0
2016-Jul-22 15:31N 44°25' E 008°55'0 0.0
2016-Jul-22 14:31N 44°25' E 008°55'5 4.9
2016-Jul-22 13:34N 44°21' E 008°59'2322.7
2016-Jul-22 12:33N 43°59' E 009°09'2423.5
2016-Jul-22 11:34N 43°37' E 009°20'2423.8
2016-Jul-22 10:33N 43°15' E 009°32'2323.2
2016-Jul-22 09:33N 42°53' E 009°43'2323.1
2016-Jul-22 08:33N 42°31' E 009°53'3022.7
2016-Jul-22 07:13N 42°04' E 010°13'6423.9
2016-Jul-22 04:32N 41°10' E 010°59'10124.7
2016-Jul-22 00:26N 39°45' E 012°09'3124.5
2016-Jul-21 23:11N 39°19' E 012°30'1524.4
2016-Jul-21 22:33N 39°06' E 012°41'2424.5
2016-Jul-21 21:34N 38°45' E 012°58'2524.7
2016-Jul-21 20:34N 38°25' E 013°15'1817.7
2016-Jul-21 19:34N 38°08' E 013°22'0 0.2
2016-Jul-21 18:31N 38°08' E 013°22'0 0.0
2016-Jul-21 17:33N 38°08' E 013°22'0 0.0
2016-Jul-21 16:33N 38°08' E 013°22'0 0.0
2016-Jul-21 15:33N 38°08' E 013°22'0 0.2
2016-Jul-21 14:34N 38°08' E 013°22'1515.5
2016-Jul-21 13:34N 38°23' E 013°17'2423.7
2016-Jul-21 12:34N 38°43' E 012°60'2423.9
2016-Jul-21 11:33N 39°03' E 012°44'10623.8
2016-Jul-21 07:06N 40°33' E 011°29'15022.4
2016-Jul-21 00:23N 42°42' E 009°47'1922.2
2016-Jul-20 23:33N 42°59' E 009°38'2222.0
2016-Jul-20 22:33N 43°20' E 009°29'2221.9
2016-Jul-20 21:33N 43°40' E 009°18'2222.5
2016-Jul-20 20:33N 44°01' E 009°07'2222.5
2016-Jul-20 19:33N 44°23' E 008°57'2 2.1
2016-Jul-20 18:29N 44°25' E 008°55'0 0.0
2016-Jul-20 17:32N 44°25' E 008°55'0 0.0
2016-Jul-20 16:31N 44°25' E 008°55'0 0.0
2016-Jul-20 15:31N 44°25' E 008°55'0 0.0
2016-Jul-20 14:30N 44°25' E 008°55'7 7.3
2016-Jul-20 13:33N 44°19' E 008°60'2322.9
2016-Jul-20 12:34N 43°57' E 009°11'2323.1
2016-Jul-20 11:33N 43°35' E 009°22'2323.0
2016-Jul-20 10:33N 43°14' E 009°34'2322.4
2016-Jul-20 09:33N 42°52' E 009°44'25923.5
2016-Jul-19 22:32N 39°10' E 012°38'2924.5
2016-Jul-19 21:22N 38°45' E 012°58'2024.9
2016-Jul-19 20:34N 38°29' E 013°12'2323.0
2016-Jul-19 19:34N 38°08' E 013°24'2 1.8
2016-Jul-19 18:32N 38°08' E 013°22'0 0.0
2016-Jul-19 17:31N 38°08' E 013°22'0 0.0
2016-Jul-19 16:31N 38°08' E 013°22'0 0.0
2016-Jul-19 15:33N 38°08' E 013°22'0 0.0
2016-Jul-19 14:33N 38°08' E 013°22'1211.6
2016-Jul-19 13:34N 38°19' E 013°19'3223.1
2016-Jul-19 12:10N 38°46' E 012°57'1423.3
2016-Jul-19 11:32N 38°58' E 012°47'5623.4
2016-Jul-19 09:09N 39°46' E 012°09'2223.3
2016-Jul-19 08:14N 40°04' E 011°53'10722.9
2016-Jul-19 03:33N 41°34' E 010°38'6922.6
2016-Jul-19 00:30N 42°34' E 009°51'2223.2
2016-Jul-18 23:33N 42°55' E 009°42'2222.5
2016-Jul-18 22:33N 43°16' E 009°32'2322.6
2016-Jul-18 21:34N 43°37' E 009°20'2322.9
2016-Jul-18 20:33N 43°58' E 009°09'2322.9
2016-Jul-18 19:34N 44°20' E 008°58'5 5.0
2016-Jul-18 18:32N 44°25' E 008°55'0 0.0
2016-Jul-18 17:28N 44°25' E 008°55'0 0.0
2016-Jul-18 16:31N 44°25' E 008°55'0 0.0
2016-Jul-18 15:30N 44°25' E 008°55'0 0.0
2016-Jul-18 14:33N 44°25' E 008°55'7 7.5
2016-Jul-18 13:34N 44°18' E 009°00'2323.3
2016-Jul-18 12:34N 43°56' E 009°11'2323.5
2016-Jul-18 11:34N 43°34' E 009°23'2423.7
2016-Jul-18 10:33N 43°12' E 009°34'2323.3
2016-Jul-18 09:33N 42°50' E 009°44'7922.8
2016-Jul-18 06:07N 41°40' E 010°33'21922.9
2016-Jul-17 20:32N 38°35' E 013°06'2323.2
2016-Jul-17 19:34N 38°16' E 013°22'8 7.6
2016-Jul-17 18:31N 38°08' E 013°22'0 0.0
2016-Jul-17 17:33N 38°08' E 013°22'0 0.0
2016-Jul-17 16:33N 38°08' E 013°22'0 0.0
2016-Jul-17 15:32N 38°08' E 013°22'2 1.8
2016-Jul-17 14:33N 38°09' E 013°24'1716.9
2016-Jul-17 13:33N 38°24' E 013°15'22922.8
2016-Jul-17 03:31N 41°38' E 010°35'6822.9
2016-Jul-17 00:33N 42°37' E 009°50'2322.9
2016-Jul-16 23:33N 42°58' E 009°40'2222.3
2016-Jul-16 22:33N 43°19' E 009°29'2322.6
2016-Jul-16 21:33N 43°40' E 009°18'2322.6
2016-Jul-16 20:33N 44°01' E 009°07'2322.6
2016-Jul-16 19:34N 44°23' E 008°57'2 2.1
2016-Jul-16 18:31N 44°25' E 008°55'0 0.0
2016-Jul-16 17:31N 44°25' E 008°55'0 0.0
2016-Jul-16 16:33N 44°25' E 008°55'0 0.0
2016-Jul-16 15:33N 44°25' E 008°55'0 0.4
2016-Jul-16 14:33N 44°24' E 008°55'1818.2
2016-Jul-16 13:34N 44°08' E 009°06'2424.3
2016-Jul-16 12:34N 43°45' E 009°19'2424.2
2016-Jul-16 11:33N 43°22' E 009°30'  

Dump ship's entire track history